This is the latest recevied weather packets stored in our database for station/object AI4Y. If no packets are shown the sender has not sent any weather packets the latest 10 day(s).
| Time | Temp. | Humidity | Pressure | Rain* | Wind** | Luminosity | Snow |
|---|---|---|---|---|---|---|---|
| 1777659038 | 19.44° C | 45% | 1013.8 hPa | 0 mm | - | 985 W/m² | - |
| 1777657236 | 17.78° C | 47% | 1014 hPa | 0 mm | - | 866 W/m² | - |
| 1777656016 | 18.33° C | 48% | 1014.3 hPa | 0 mm | - | 947 W/m² | - |
| 1777653017 | 17.22° C | 51% | 1015.3 hPa | 0 mm | - | 642 W/m² | - |
| 1777646438 | 15° C | 55% | 1016 hPa | 0 mm | - | 499 W/m² | - |
| 1777644619 | 14.44° C | 55% | 1016.1 hPa | 0 mm | - | 574 W/m² | - |
| 1777642816 | 13.33° C | 60% | 1016.4 hPa | 0 mm | - | 449 W/m² | - |
| 1777640457 | 12.78° C | 60% | 1016.4 hPa | 0 mm | - | 327 W/m² | - |
| 1777638017 | 10.56° C | 73% | 1016.3 hPa | 0 mm | - | 218 W/m² | - |
| 1777635618 | 8.33° C | 84% | 1016.2 hPa | 0 mm | - | 107 W/m² | - |
| 1777634418 | 6.67° C | 90% | 1016.1 hPa | 0 mm | - | 72 W/m² | - |
| 1777628436 | 6.11° C | 85% | 1015.5 hPa | 0 mm | - | 0 W/m² | - |
| 1777627216 | 6.67° C | 82% | 1015.6 hPa | 0 mm | - | 0 W/m² | - |
| 1777623618 | 8.89° C | 72% | 1015.5 hPa | 0 mm | - | 0 W/m² | - |
| 1777623018 | 8.89° C | 71% | 1015.3 hPa | 0 mm | - | 0 W/m² | - |
| 1777618816 | 10° C | 64% | 1015.3 hPa | 0 mm | - | 0 W/m² | - |
| 1777616416 | 10° C | 61% | 1015.3 hPa | 0 mm | - | 0 W/m² | - |
| 1777614017 | 10.56° C | 59% | 1015.2 hPa | 0 mm | - | 0 W/m² | - |
| 1777611617 | 10.56° C | 57% | 1015.1 hPa | 0 mm | - | 0 W/m² | - |
| 1777611018 | 10.56° C | 58% | 1015.3 hPa | 0 mm | - | 0 W/m² | - |
| 1777610418 | 10.56° C | 57% | 1015.1 hPa | 0 mm | - | 0 W/m² | - |
| 1777606816 | 11.11° C | 54% | 1014.3 hPa | 0 mm | - | 0 W/m² | - |
| 1777603819 | 11.11° C | 55% | 1015.2 hPa | 0 mm | - | 0 W/m² | - |
| 1777602017 | 12.22° C | 52% | 1014.8 hPa | 0 mm | - | 0 W/m² | - |
| 1777601417 | 12.22° C | 53% | 1014.7 hPa | 0 mm | - | 0 W/m² | - |
* Rain latest hour (hover to see other rain measurements)
** Current wind speed in m/s (hover to see current wind gust speed)